sensor_id;sensor_type;location;lat;lon;timestamp;temperature;humidity
25991;DHT22;13779;-33.886;151.198;2023-05-29T00:00:39;15.10;99.90
25991;DHT22;13779;-33.886;151.198;2023-05-29T00:03:10;15.10;99.90
25991;DHT22;13779;-33.886;151.198;2023-05-29T00:05:40;15.20;99.90
25991;DHT22;13779;-33.886;151.198;2023-05-29T00:08:10;15.30;99.90
25991;DHT22;13779;-33.886;151.198;2023-05-29T00:10:40;15.30;99.90
25991;DHT22;13779;-33.886;151.198;2023-05-29T00:13:10;15.50;99.90
25991;DHT22;13779;-33.886;151.198;2023-05-29T00:15:40;15.50;99.90
25991;DHT22;13779;-33.886;151.198;2023-05-29T00:18:10;15.60;99.90
25991;DHT22;13779;-33.886;151.198;2023-05-29T00:20:40;15.70;99.90
25991;DHT22;13779;-33.886;151.198;2023-05-29T00:23:11;15.70;99.90
25991;DHT22;13779;-33.886;151.198;2023-05-29T00:25:41;15.80;99.90
25991;DHT22;13779;-33.886;151.198;2023-05-29T00:28:11;15.80;99.90
25991;DHT22;13779;-33.886;151.198;2023-05-29T00:30:41;15.90;99.90
25991;DHT22;13779;-33.886;151.198;2023-05-29T00:33:11;16.00;99.90
25991;DHT22;13779;-33.886;151.198;2023-05-29T00:35:41;16.10;99.90
25991;DHT22;13779;-33.886;151.198;2023-05-29T00:38:12;16.10;99.90
25991;DHT22;13779;-33.886;151.198;2023-05-29T00:40:42;16.20;99.90
25991;DHT22;13779;-33.886;151.198;2023-05-29T00:43:12;16.30;99.90
25991;DHT22;13779;-33.886;151.198;2023-05-29T00:45:42;16.40;99.90
25991;DHT22;13779;-33.886;151.198;2023-05-29T00:48:12;16.50;99.90
25991;DHT22;13779;-33.886;151.198;2023-05-29T00:50:44;16.60;99.90
25991;DHT22;13779;-33.886;151.198;2023-05-29T00:53:14;16.70;99.90
25991;DHT22;13779;-33.886;151.198;2023-05-29T00:55:45;16.70;99.90
25991;DHT22;13779;-33.886;151.198;2023-05-29T00:58:16;16.80;99.90
25991;DHT22;13779;-33.886;151.198;2023-05-29T01:00:47;16.80;99.90
25991;DHT22;13779;-33.886;151.198;2023-05-29T01:03:18;16.90;99.90
25991;DHT22;13779;-33.886;151.198;2023-05-29T01:05:49;16.90;99.90
25991;DHT22;13779;-33.886;151.198;2023-05-29T01:08:21;16.90;99.90
25991;DHT22;13779;-33.886;151.198;2023-05-29T01:10:54;17.00;99.90
25991;DHT22;13779;-33.886;151.198;2023-05-29T01:13:30;17.10;99.90
25991;DHT22;13779;-33.886;151.198;2023-05-29T01:19:01;17.20;99.90
25991;DHT22;13779;-33.886;151.198;2023-05-29T01:27:22;17.40;99.90
25991;DHT22;13779;-33.886;151.198;2023-05-29T01:29:56;17.40;99.90
25991;DHT22;13779;-33.886;151.198;2023-05-29T01:32:28;17.40;99.90
25991;DHT22;13779;-33.886;151.198;2023-05-29T01:35:00;17.40;99.90
25991;DHT22;13779;-33.886;151.198;2023-05-29T01:37:30;17.60;99.90
25991;DHT22;13779;-33.886;151.198;2023-05-29T01:40:01;17.60;99.90
25991;DHT22;13779;-33.886;151.198;2023-05-29T01:42:34;17.60;99.90
25991;DHT22;13779;-33.886;151.198;2023-05-29T01:45:05;17.60;99.90
25991;DHT22;13779;-33.886;151.198;2023-05-29T01:47:36;17.70;99.90
25991;DHT22;13779;-33.886;151.198;2023-05-29T01:50:07;17.80;99.90
25991;DHT22;13779;-33.886;151.198;2023-05-29T01:52:39;17.80;99.90
25991;DHT22;13779;-33.886;151.198;2023-05-29T01:55:10;17.80;99.90
25991;DHT22;13779;-33.886;151.198;2023-05-29T01:57:41;17.80;99.90
25991;DHT22;13779;-33.886;151.198;2023-05-29T02:00:17;17.90;99.90
25991;DHT22;13779;-33.886;151.198;2023-05-29T02:02:49;17.90;99.90
25991;DHT22;13779;-33.886;151.198;2023-05-29T02:05:19;18.00;99.90
25991;DHT22;13779;-33.886;151.198;2023-05-29T02:07:51;18.00;99.90
25991;DHT22;13779;-33.886;151.198;2023-05-29T02:10:21;18.10;99.90
25991;DHT22;13779;-33.886;151.198;2023-05-29T02:12:52;18.20;99.90
25991;DHT22;13779;-33.886;151.198;2023-05-29T02:15:23;18.20;99.90
25991;DHT22;13779;-33.886;151.198;2023-05-29T02:17:53;18.30;99.90
25991;DHT22;13779;-33.886;151.198;2023-05-29T02:20:25;18.30;99.90
25991;DHT22;13779;-33.886;151.198;2023-05-29T02:22:54;18.10;99.90
25991;DHT22;13779;-33.886;151.198;2023-05-29T02:25:25;18.00;99.90
25991;DHT22;13779;-33.886;151.198;2023-05-29T02:27:55;17.90;99.90
25991;DHT22;13779;-33.886;151.198;2023-05-29T02:30:27;17.90;99.90
25991;DHT22;13779;-33.886;151.198;2023-05-29T02:32:57;18.00;99.90
25991;DHT22;13779;-33.886;151.198;2023-05-29T02:35:28;18.10;99.90
25991;DHT22;13779;-33.886;151.198;2023-05-29T02:37:58;18.20;99.90
25991;DHT22;13779;-33.886;151.198;2023-05-29T02:40:29;18.20;99.90
25991;DHT22;13779;-33.886;151.198;2023-05-29T02:42:59;18.30;99.90
25991;DHT22;13779;-33.886;151.198;2023-05-29T02:45:30;18.40;99.90
25991;DHT22;13779;-33.886;151.198;2023-05-29T02:48:00;18.50;99.90
25991;DHT22;13779;-33.886;151.198;2023-05-29T02:50:31;18.60;99.90
25991;DHT22;13779;-33.886;151.198;2023-05-29T02:53:01;18.60;99.90
25991;DHT22;13779;-33.886;151.198;2023-05-29T02:55:32;18.60;99.90
25991;DHT22;13779;-33.886;151.198;2023-05-29T02:58:05;18.60;99.90
25991;DHT22;13779;-33.886;151.198;2023-05-29T03:00:35;18.80;99.90
25991;DHT22;13779;-33.886;151.198;2023-05-29T03:03:06;19.00;99.90
25991;DHT22;13779;-33.886;151.198;2023-05-29T03:05:37;19.10;99.90
25991;DHT22;13779;-33.886;151.198;2023-05-29T03:08:07;19.40;99.90
25991;DHT22;13779;-33.886;151.198;2023-05-29T03:10:37;19.50;99.90
25991;DHT22;13779;-33.886;151.198;2023-05-29T03:13:07;19.50;99.90
25991;DHT22;13779;-33.886;151.198;2023-05-29T03:15:37;19.60;99.90
25991;DHT22;13779;-33.886;151.198;2023-05-29T03:18:07;19.80;99.90
25991;DHT22;13779;-33.886;151.198;2023-05-29T03:20:37;19.90;99.90
25991;DHT22;13779;-33.886;151.198;2023-05-29T03:23:08;20.20;99.90
25991;DHT22;13779;-33.886;151.198;2023-05-29T03:25:38;20.30;99.90
25991;DHT22;13779;-33.886;151.198;2023-05-29T03:28:08;20.50;99.90
25991;DHT22;13779;-33.886;151.198;2023-05-29T03:30:38;20.80;99.90
25991;DHT22;13779;-33.886;151.198;2023-05-29T03:33:08;21.10;99.90
25991;DHT22;13779;-33.886;151.198;2023-05-29T03:35:38;21.30;99.90
25991;DHT22;13779;-33.886;151.198;2023-05-29T03:38:09;21.50;99.90
25991;DHT22;13779;-33.886;151.198;2023-05-29T03:40:39;21.30;99.90
25991;DHT22;13779;-33.886;151.198;2023-05-29T03:43:09;21.30;99.90
25991;DHT22;13779;-33.886;151.198;2023-05-29T03:45:39;21.30;99.90
25991;DHT22;13779;-33.886;151.198;2023-05-29T03:48:09;21.10;99.90
25991;DHT22;13779;-33.886;151.198;2023-05-29T03:50:39;21.00;99.90
25991;DHT22;13779;-33.886;151.198;2023-05-29T03:53:09;21.00;99.90
25991;DHT22;13779;-33.886;151.198;2023-05-29T03:55:39;20.90;99.90
25991;DHT22;13779;-33.886;151.198;2023-05-29T03:58:10;20.90;99.90
25991;DHT22;13779;-33.886;151.198;2023-05-29T04:00:42;20.80;99.90
25991;DHT22;13779;-33.886;151.198;2023-05-29T04:03:12;20.70;99.90
25991;DHT22;13779;-33.886;151.198;2023-05-29T04:05:43;20.60;99.90
25991;DHT22;13779;-33.886;151.198;2023-05-29T04:08:14;20.60;99.90
25991;DHT22;13779;-33.886;151.198;2023-05-29T04:10:44;20.60;99.90
25991;DHT22;13779;-33.886;151.198;2023-05-29T04:13:16;20.60;99.90
25991;DHT22;13779;-33.886;151.198;2023-05-29T04:15:46;20.60;99.90
25991;DHT22;13779;-33.886;151.198;2023-05-29T04:18:17;20.50;99.90
25991;DHT22;13779;-33.886;151.198;2023-05-29T04:20:47;20.70;99.90
25991;DHT22;13779;-33.886;151.198;2023-05-29T04:23:18;20.70;99.90
25991;DHT22;13779;-33.886;151.198;2023-05-29T04:25:49;20.70;99.90
25991;DHT22;13779;-33.886;151.198;2023-05-29T04:28:22;20.90;99.90
25991;DHT22;13779;-33.886;151.198;2023-05-29T04:30:53;20.90;99.90
25991;DHT22;13779;-33.886;151.198;2023-05-29T04:33:26;20.70;99.90
25991;DHT22;13779;-33.886;151.198;2023-05-29T04:35:58;20.70;99.90
25991;DHT22;13779;-33.886;151.198;2023-05-29T04:38:30;20.70;99.90
25991;DHT22;13779;-33.886;151.198;2023-05-29T04:41:01;20.60;99.90
25991;DHT22;13779;-33.886;151.198;2023-05-29T04:43:32;20.40;99.90
25991;DHT22;13779;-33.886;151.198;2023-05-29T04:46:05;20.40;99.90
25991;DHT22;13779;-33.886;151.198;2023-05-29T04:48:36;20.20;99.90
25991;DHT22;13779;-33.886;151.198;2023-05-29T04:51:10;20.00;99.90
25991;DHT22;13779;-33.886;151.198;2023-05-29T04:53:41;20.00;99.90
25991;DHT22;13779;-33.886;151.198;2023-05-29T04:56:12;19.90;99.90
25991;DHT22;13779;-33.886;151.198;2023-05-29T04:58:43;19.90;99.90
25991;DHT22;13779;-33.886;151.198;2023-05-29T05:01:13;19.70;99.90
25991;DHT22;13779;-33.886;151.198;2023-05-29T05:03:44;19.60;99.90
25991;DHT22;13779;-33.886;151.198;2023-05-29T05:06:14;19.60;99.90
25991;DHT22;13779;-33.886;151.198;2023-05-29T05:08:46;19.50;99.90
25991;DHT22;13779;-33.886;151.198;2023-05-29T05:11:16;19.30;99.90
25991;DHT22;13779;-33.886;151.198;2023-05-29T05:13:46;19.20;99.90
25991;DHT22;13779;-33.886;151.198;2023-05-29T05:16:16;19.10;99.90
25991;DHT22;13779;-33.886;151.198;2023-05-29T05:18:47;19.10;99.90
25991;DHT22;13779;-33.886;151.198;2023-05-29T05:21:18;19.10;99.90
25991;DHT22;13779;-33.886;151.198;2023-05-29T05:23:48;19.00;99.90
25991;DHT22;13779;-33.886;151.198;2023-05-29T05:26:25;19.00;99.90
25991;DHT22;13779;-33.886;151.198;2023-05-29T05:28:58;18.90;99.90
25991;DHT22;13779;-33.886;151.198;2023-05-29T05:31:28;18.90;99.90
25991;DHT22;13779;-33.886;151.198;2023-05-29T05:33:58;18.90;99.90
25991;DHT22;13779;-33.886;151.198;2023-05-29T05:36:29;18.90;99.90
25991;DHT22;13779;-33.886;151.198;2023-05-29T05:39:00;18.90;99.90
25991;DHT22;13779;-33.886;151.198;2023-05-29T05:41:30;18.90;99.90
25991;DHT22;13779;-33.886;151.198;2023-05-29T05:44:00;18.90;99.90
25991;DHT22;13779;-33.886;151.198;2023-05-29T05:46:30;18.90;99.90
25991;DHT22;13779;-33.886;151.198;2023-05-29T05:49:01;18.80;99.90
25991;DHT22;13779;-33.886;151.198;2023-05-29T05:51:31;18.70;99.90
25991;DHT22;13779;-33.886;151.198;2023-05-29T05:54:01;18.70;99.90
25991;DHT22;13779;-33.886;151.198;2023-05-29T05:56:31;18.60;99.90
25991;DHT22;13779;-33.886;151.198;2023-05-29T05:59:01;18.60;99.90
25991;DHT22;13779;-33.886;151.198;2023-05-29T06:01:31;18.50;99.90
25991;DHT22;13779;-33.886;151.198;2023-05-29T06:04:02;18.50;99.90
25991;DHT22;13779;-33.886;151.198;2023-05-29T06:06:32;18.50;99.90
25991;DHT22;13779;-33.886;151.198;2023-05-29T06:09:02;18.50;99.90
25991;DHT22;13779;-33.886;151.198;2023-05-29T06:11:33;18.40;99.90
25991;DHT22;13779;-33.886;151.198;2023-05-29T06:14:04;18.40;99.90
25991;DHT22;13779;-33.886;151.198;2023-05-29T06:16:35;18.40;99.90
25991;DHT22;13779;-33.886;151.198;2023-05-29T06:19:05;18.40;99.90
25991;DHT22;13779;-33.886;151.198;2023-05-29T06:21:35;18.30;99.90
25991;DHT22;13779;-33.886;151.198;2023-05-29T06:24:05;18.30;99.90
25991;DHT22;13779;-33.886;151.198;2023-05-29T06:26:36;18.20;99.90
25991;DHT22;13779;-33.886;151.198;2023-05-29T06:29:07;18.20;99.90
25991;DHT22;13779;-33.886;151.198;2023-05-29T06:31:37;18.20;99.90
25991;DHT22;13779;-33.886;151.198;2023-05-29T06:34:07;18.10;99.90
25991;DHT22;13779;-33.886;151.198;2023-05-29T06:36:37;18.00;99.90
25991;DHT22;13779;-33.886;151.198;2023-05-29T06:39:08;18.00;99.90
25991;DHT22;13779;-33.886;151.198;2023-05-29T06:41:38;18.00;99.90
25991;DHT22;13779;-33.886;151.198;2023-05-29T06:44:08;18.00;99.90
25991;DHT22;13779;-33.886;151.198;2023-05-29T06:46:39;17.90;99.90
25991;DHT22;13779;-33.886;151.198;2023-05-29T06:49:09;17.80;99.90
25991;DHT22;13779;-33.886;151.198;2023-05-29T06:51:39;17.70;99.90
25991;DHT22;13779;-33.886;151.198;2023-05-29T06:54:09;17.70;99.90
25991;DHT22;13779;-33.886;151.198;2023-05-29T06:56:39;17.60;99.90
25991;DHT22;13779;-33.886;151.198;2023-05-29T06:59:10;17.60;99.90
25991;DHT22;13779;-33.886;151.198;2023-05-29T07:01:44;17.50;99.90
25991;DHT22;13779;-33.886;151.198;2023-05-29T07:04:14;17.40;99.90
25991;DHT22;13779;-33.886;151.198;2023-05-29T07:06:45;17.40;99.90
25991;DHT22;13779;-33.886;151.198;2023-05-29T07:09:16;17.30;99.90
25991;DHT22;13779;-33.886;151.198;2023-05-29T07:11:47;17.30;99.90
25991;DHT22;13779;-33.886;151.198;2023-05-29T07:14:17;17.20;99.90
25991;DHT22;13779;-33.886;151.198;2023-05-29T07:16:48;17.20;99.90
25991;DHT22;13779;-33.886;151.198;2023-05-29T07:19:18;17.20;99.90
25991;DHT22;13779;-33.886;151.198;2023-05-29T07:21:49;17.20;99.90
25991;DHT22;13779;-33.886;151.198;2023-05-29T07:24:23;17.10;99.90
25991;DHT22;13779;-33.886;151.198;2023-05-29T07:26:54;17.10;99.90
25991;DHT22;13779;-33.886;151.198;2023-05-29T07:29:25;17.10;99.90
25991;DHT22;13779;-33.886;151.198;2023-05-29T07:31:55;17.10;99.90
25991;DHT22;13779;-33.886;151.198;2023-05-29T07:34:26;17.00;99.90
25991;DHT22;13779;-33.886;151.198;2023-05-29T07:37:06;16.90;99.90
25991;DHT22;13779;-33.886;151.198;2023-05-29T07:39:37;16.90;99.90
25991;DHT22;13779;-33.886;151.198;2023-05-29T07:42:07;16.90;99.90
25991;DHT22;13779;-33.886;151.198;2023-05-29T07:44:38;16.80;99.90
25991;DHT22;13779;-33.886;151.198;2023-05-29T07:47:09;16.80;99.90
25991;DHT22;13779;-33.886;151.198;2023-05-29T07:49:40;16.80;99.90
25991;DHT22;13779;-33.886;151.198;2023-05-29T07:52:10;16.70;99.90
25991;DHT22;13779;-33.886;151.198;2023-05-29T07:54:41;16.70;99.90
25991;DHT22;13779;-33.886;151.198;2023-05-29T07:57:11;16.70;99.90
25991;DHT22;13779;-33.886;151.198;2023-05-29T07:59:46;16.60;99.90
25991;DHT22;13779;-33.886;151.198;2023-05-29T08:02:19;16.60;99.90
25991;DHT22;13779;-33.886;151.198;2023-05-29T08:04:50;16.60;99.90
25991;DHT22;13779;-33.886;151.198;2023-05-29T08:07:21;16.60;99.90
25991;DHT22;13779;-33.886;151.198;2023-05-29T08:09:52;16.50;99.90
25991;DHT22;13779;-33.886;151.198;2023-05-29T08:12:23;16.50;99.90
25991;DHT22;13779;-33.886;151.198;2023-05-29T08:14:54;16.50;99.90
25991;DHT22;13779;-33.886;151.198;2023-05-29T08:17:24;16.50;99.90
25991;DHT22;13779;-33.886;151.198;2023-05-29T08:19:58;16.50;99.90
25991;DHT22;13779;-33.886;151.198;2023-05-29T08:22:30;16.50;99.90
25991;DHT22;13779;-33.886;151.198;2023-05-29T08:25:00;16.50;99.90
25991;DHT22;13779;-33.886;151.198;2023-05-29T08:27:31;16.40;99.90
25991;DHT22;13779;-33.886;151.198;2023-05-29T08:30:04;16.40;99.90
25991;DHT22;13779;-33.886;151.198;2023-05-29T08:32:35;16.40;99.90
25991;DHT22;13779;-33.886;151.198;2023-05-29T08:35:06;16.40;99.90
25991;DHT22;13779;-33.886;151.198;2023-05-29T08:37:36;16.40;99.90
25991;DHT22;13779;-33.886;151.198;2023-05-29T08:40:07;16.30;99.90
25991;DHT22;13779;-33.886;151.198;2023-05-29T08:42:50;16.30;99.90
25991;DHT22;13779;-33.886;151.198;2023-05-29T08:45:23;16.20;99.90
25991;DHT22;13779;-33.886;151.198;2023-05-29T08:47:54;16.20;99.90
25991;DHT22;13779;-33.886;151.198;2023-05-29T08:50:27;16.20;99.90
25991;DHT22;13779;-33.886;151.198;2023-05-29T08:52:58;16.20;99.90
25991;DHT22;13779;-33.886;151.198;2023-05-29T08:55:29;16.20;99.90
25991;DHT22;13779;-33.886;151.198;2023-05-29T08:58:02;16.10;99.90
25991;DHT22;13779;-33.886;151.198;2023-05-29T09:00:34;16.10;99.90
25991;DHT22;13779;-33.886;151.198;2023-05-29T09:03:06;16.10;99.90
25991;DHT22;13779;-33.886;151.198;2023-05-29T09:05:38;16.10;99.90
25991;DHT22;13779;-33.886;151.198;2023-05-29T09:08:10;16.00;99.90
25991;DHT22;13779;-33.886;151.198;2023-05-29T09:10:45;16.00;99.90
25991;DHT22;13779;-33.886;151.198;2023-05-29T09:13:15;15.90;99.90
25991;DHT22;13779;-33.886;151.198;2023-05-29T09:15:47;15.90;99.90
25991;DHT22;13779;-33.886;151.198;2023-05-29T09:18:17;15.80;99.90
25991;DHT22;13779;-33.886;151.198;2023-05-29T09:20:48;15.80;99.90
25991;DHT22;13779;-33.886;151.198;2023-05-29T09:23:19;15.80;99.90
25991;DHT22;13779;-33.886;151.198;2023-05-29T09:25:53;15.80;99.90
25991;DHT22;13779;-33.886;151.198;2023-05-29T09:28:24;15.70;99.90
25991;DHT22;13779;-33.886;151.198;2023-05-29T09:30:57;15.70;99.90
25991;DHT22;13779;-33.886;151.198;2023-05-29T09:33:27;15.70;99.90
25991;DHT22;13779;-33.886;151.198;2023-05-29T09:35:58;15.70;99.90
25991;DHT22;13779;-33.886;151.198;2023-05-29T09:38:30;15.70;99.90
25991;DHT22;13779;-33.886;151.198;2023-05-29T09:41:06;15.70;99.90
25991;DHT22;13779;-33.886;151.198;2023-05-29T09:43:39;15.60;99.90
25991;DHT22;13779;-33.886;151.198;2023-05-29T09:46:16;15.60;99.90
25991;DHT22;13779;-33.886;151.198;2023-05-29T09:48:50;15.50;99.90
25991;DHT22;13779;-33.886;151.198;2023-05-29T09:51:23;15.50;99.90
25991;DHT22;13779;-33.886;151.198;2023-05-29T09:53:54;15.50;99.90
25991;DHT22;13779;-33.886;151.198;2023-05-29T09:56:26;15.40;99.90
25991;DHT22;13779;-33.886;151.198;2023-05-29T09:58:57;15.40;99.90
25991;DHT22;13779;-33.886;151.198;2023-05-29T10:01:29;15.30;99.90
25991;DHT22;13779;-33.886;151.198;2023-05-29T10:04:01;15.30;99.90
25991;DHT22;13779;-33.886;151.198;2023-05-29T10:06:31;15.30;99.90
25991;DHT22;13779;-33.886;151.198;2023-05-29T10:09:08;15.30;99.90
25991;DHT22;13779;-33.886;151.198;2023-05-29T10:11:43;15.30;99.90
25991;DHT22;13779;-33.886;151.198;2023-05-29T10:14:18;15.20;99.90
25991;DHT22;13779;-33.886;151.198;2023-05-29T10:16:51;15.20;99.90
25991;DHT22;13779;-33.886;151.198;2023-05-29T10:19:27;15.20;99.90
25991;DHT22;13779;-33.886;151.198;2023-05-29T10:22:02;15.10;99.90
25991;DHT22;13779;-33.886;151.198;2023-05-29T10:24:36;15.10;99.90
25991;DHT22;13779;-33.886;151.198;2023-05-29T10:27:07;15.00;99.90
25991;DHT22;13779;-33.886;151.198;2023-05-29T10:29:48;15.00;99.90
25991;DHT22;13779;-33.886;151.198;2023-05-29T10:35:51;14.90;99.90
25991;DHT22;13779;-33.886;151.198;2023-05-29T10:38:25;14.90;99.90
25991;DHT22;13779;-33.886;151.198;2023-05-29T10:40:56;14.90;99.90
25991;DHT22;13779;-33.886;151.198;2023-05-29T10:43:48;14.80;99.90
25991;DHT22;13779;-33.886;151.198;2023-05-29T10:46:18;14.80;99.90
25991;DHT22;13779;-33.886;151.198;2023-05-29T10:48:54;14.80;99.90
25991;DHT22;13779;-33.886;151.198;2023-05-29T10:51:27;14.80;99.90
25991;DHT22;13779;-33.886;151.198;2023-05-29T10:53:58;14.70;99.90
25991;DHT22;13779;-33.886;151.198;2023-05-29T10:56:31;14.70;99.90
25991;DHT22;13779;-33.886;151.198;2023-05-29T10:59:05;14.70;99.90
25991;DHT22;13779;-33.886;151.198;2023-05-29T11:01:41;14.60;99.90
25991;DHT22;13779;-33.886;151.198;2023-05-29T11:06:49;14.50;99.90
25991;DHT22;13779;-33.886;151.198;2023-05-29T11:09:26;14.50;99.90
25991;DHT22;13779;-33.886;151.198;2023-05-29T11:12:24;14.40;99.90
25991;DHT22;13779;-33.886;151.198;2023-05-29T11:15:12;14.40;99.90
25991;DHT22;13779;-33.886;151.198;2023-05-29T11:17:45;14.40;99.90
25991;DHT22;13779;-33.886;151.198;2023-05-29T11:20:53;14.40;99.90
25991;DHT22;13779;-33.886;151.198;2023-05-29T11:23:25;14.50;99.90
25991;DHT22;13779;-33.886;151.198;2023-05-29T11:26:00;14.40;99.90
25991;DHT22;13779;-33.886;151.198;2023-05-29T11:28:31;14.40;99.90
25991;DHT22;13779;-33.886;151.198;2023-05-29T11:31:01;14.50;99.90
25991;DHT22;13779;-33.886;151.198;2023-05-29T11:33:40;14.60;99.90
25991;DHT22;13779;-33.886;151.198;2023-05-29T11:36:11;14.60;99.90
25991;DHT22;13779;-33.886;151.198;2023-05-29T11:38:41;14.70;99.90
25991;DHT22;13779;-33.886;151.198;2023-05-29T11:41:12;14.70;99.90
25991;DHT22;13779;-33.886;151.198;2023-05-29T11:43:43;14.80;99.90
25991;DHT22;13779;-33.886;151.198;2023-05-29T11:46:17;14.80;99.90
25991;DHT22;13779;-33.886;151.198;2023-05-29T11:48:48;14.80;99.90
25991;DHT22;13779;-33.886;151.198;2023-05-29T11:51:19;14.80;99.90
25991;DHT22;13779;-33.886;151.198;2023-05-29T11:53:50;14.90;99.90
25991;DHT22;13779;-33.886;151.198;2023-05-29T11:56:28;14.90;99.90
25991;DHT22;13779;-33.886;151.198;2023-05-29T11:58:59;14.80;99.90
25991;DHT22;13779;-33.886;151.198;2023-05-29T12:01:35;14.80;99.90
25991;DHT22;13779;-33.886;151.198;2023-05-29T12:04:15;14.80;99.90
25991;DHT22;13779;-33.886;151.198;2023-05-29T12:06:46;14.70;99.90
25991;DHT22;13779;-33.886;151.198;2023-05-29T12:09:29;14.80;99.90
25991;DHT22;13779;-33.886;151.198;2023-05-29T12:12:03;14.70;99.90
25991;DHT22;13779;-33.886;151.198;2023-05-29T12:14:34;14.70;99.90
25991;DHT22;13779;-33.886;151.198;2023-05-29T12:17:05;14.70;99.90
25991;DHT22;13779;-33.886;151.198;2023-05-29T12:19:36;14.70;99.90
25991;DHT22;13779;-33.886;151.198;2023-05-29T12:22:07;14.70;99.90
25991;DHT22;13779;-33.886;151.198;2023-05-29T12:24:37;14.70;99.90
25991;DHT22;13779;-33.886;151.198;2023-05-29T12:27:10;14.60;99.90
25991;DHT22;13779;-33.886;151.198;2023-05-29T12:29:41;14.60;99.90
25991;DHT22;13779;-33.886;151.198;2023-05-29T12:32:11;14.60;99.90
25991;DHT22;13779;-33.886;151.198;2023-05-29T12:34:42;14.50;99.90
25991;DHT22;13779;-33.886;151.198;2023-05-29T12:37:20;14.50;99.90
25991;DHT22;13779;-33.886;151.198;2023-05-29T12:40:19;14.50;99.90
25991;DHT22;13779;-33.886;151.198;2023-05-29T12:43:04;14.50;99.90
25991;DHT22;13779;-33.886;151.198;2023-05-29T12:45:35;14.40;99.90
25991;DHT22;13779;-33.886;151.198;2023-05-29T12:48:07;14.40;99.90
25991;DHT22;13779;-33.886;151.198;2023-05-29T12:50:41;14.40;99.90
25991;DHT22;13779;-33.886;151.198;2023-05-29T12:53:14;14.30;99.90
25991;DHT22;13779;-33.886;151.198;2023-05-29T12:55:50;14.30;99.90
25991;DHT22;13779;-33.886;151.198;2023-05-29T12:58:21;14.30;99.90
25991;DHT22;13779;-33.886;151.198;2023-05-29T13:00:53;14.30;99.90
25991;DHT22;13779;-33.886;151.198;2023-05-29T13:03:27;14.30;99.90
25991;DHT22;13779;-33.886;151.198;2023-05-29T13:05:57;14.30;99.90
25991;DHT22;13779;-33.886;151.198;2023-05-29T13:08:28;14.30;99.90
25991;DHT22;13779;-33.886;151.198;2023-05-29T13:10:59;14.30;99.90
25991;DHT22;13779;-33.886;151.198;2023-05-29T13:13:30;14.30;99.90
25991;DHT22;13779;-33.886;151.198;2023-05-29T13:16:03;14.30;99.90
25991;DHT22;13779;-33.886;151.198;2023-05-29T13:18:34;14.30;99.90
25991;DHT22;13779;-33.886;151.198;2023-05-29T13:21:05;14.30;99.90
25991;DHT22;13779;-33.886;151.198;2023-05-29T13:23:35;14.30;99.90
25991;DHT22;13779;-33.886;151.198;2023-05-29T13:26:06;14.20;99.90
25991;DHT22;13779;-33.886;151.198;2023-05-29T13:28:37;14.20;99.90
25991;DHT22;13779;-33.886;151.198;2023-05-29T13:31:08;14.20;99.90
25991;DHT22;13779;-33.886;151.198;2023-05-29T13:33:38;14.20;99.90
25991;DHT22;13779;-33.886;151.198;2023-05-29T13:36:09;14.20;99.90
25991;DHT22;13779;-33.886;151.198;2023-05-29T13:38:40;14.20;99.90
25991;DHT22;13779;-33.886;151.198;2023-05-29T13:41:10;14.30;99.90
25991;DHT22;13779;-33.886;151.198;2023-05-29T13:43:44;14.20;99.90
25991;DHT22;13779;-33.886;151.198;2023-05-29T13:46:18;14.30;99.90
25991;DHT22;13779;-33.886;151.198;2023-05-29T13:48:48;14.30;99.90
25991;DHT22;13779;-33.886;151.198;2023-05-29T13:51:24;14.30;99.90
25991;DHT22;13779;-33.886;151.198;2023-05-29T13:53:55;14.20;99.90
25991;DHT22;13779;-33.886;151.198;2023-05-29T13:56:26;14.20;99.90
25991;DHT22;13779;-33.886;151.198;2023-05-29T13:58:57;14.20;99.90
25991;DHT22;13779;-33.886;151.198;2023-05-29T14:01:36;14.20;99.90
25991;DHT22;13779;-33.886;151.198;2023-05-29T14:04:07;14.20;99.90
25991;DHT22;13779;-33.886;151.198;2023-05-29T14:06:38;14.10;99.90
25991;DHT22;13779;-33.886;151.198;2023-05-29T14:09:08;14.10;99.90
25991;DHT22;13779;-33.886;151.198;2023-05-29T14:11:46;14.10;99.90
25991;DHT22;13779;-33.886;151.198;2023-05-29T14:14:17;14.10;99.90
25991;DHT22;13779;-33.886;151.198;2023-05-29T14:16:48;14.10;99.90
25991;DHT22;13779;-33.886;151.198;2023-05-29T14:19:21;14.00;99.90
25991;DHT22;13779;-33.886;151.198;2023-05-29T14:21:53;13.90;99.90
25991;DHT22;13779;-33.886;151.198;2023-05-29T14:24:23;13.80;99.90
25991;DHT22;13779;-33.886;151.198;2023-05-29T14:26:54;13.80;99.90
25991;DHT22;13779;-33.886;151.198;2023-05-29T14:29:25;13.70;99.90
25991;DHT22;13779;-33.886;151.198;2023-05-29T14:31:56;13.70;99.90
25991;DHT22;13779;-33.886;151.198;2023-05-29T14:34:29;13.60;99.90
25991;DHT22;13779;-33.886;151.198;2023-05-29T14:37:00;13.70;99.90
25991;DHT22;13779;-33.886;151.198;2023-05-29T14:39:30;13.60;99.90
25991;DHT22;13779;-33.886;151.198;2023-05-29T14:42:01;13.50;99.90
25991;DHT22;13779;-33.886;151.198;2023-05-29T14:44:38;13.50;99.90
25991;DHT22;13779;-33.886;151.198;2023-05-29T14:47:08;13.50;99.90
25991;DHT22;13779;-33.886;151.198;2023-05-29T14:49:39;13.50;99.90
25991;DHT22;13779;-33.886;151.198;2023-05-29T14:52:09;13.50;99.90
25991;DHT22;13779;-33.886;151.198;2023-05-29T14:54:43;13.50;99.90
25991;DHT22;13779;-33.886;151.198;2023-05-29T14:57:14;13.50;99.90
25991;DHT22;13779;-33.886;151.198;2023-05-29T14:59:44;13.50;99.90
25991;DHT22;13779;-33.886;151.198;2023-05-29T15:02:15;13.50;99.90
25991;DHT22;13779;-33.886;151.198;2023-05-29T15:04:46;13.50;99.90
25991;DHT22;13779;-33.886;151.198;2023-05-29T15:07:17;13.60;99.90
25991;DHT22;13779;-33.886;151.198;2023-05-29T15:09:47;13.50;99.90
25991;DHT22;13779;-33.886;151.198;2023-05-29T15:12:17;13.50;99.90
25991;DHT22;13779;-33.886;151.198;2023-05-29T15:14:48;13.50;99.90
25991;DHT22;13779;-33.886;151.198;2023-05-29T15:17:23;13.50;99.90
25991;DHT22;13779;-33.886;151.198;2023-05-29T15:19:54;13.40;99.90
25991;DHT22;13779;-33.886;151.198;2023-05-29T15:22:32;13.40;99.90
25991;DHT22;13779;-33.886;151.198;2023-05-29T15:25:03;13.30;99.90
25991;DHT22;13779;-33.886;151.198;2023-05-29T15:27:33;13.30;99.90
25991;DHT22;13779;-33.886;151.198;2023-05-29T15:30:12;13.30;99.90